• Join FlightAware (Why Join?)
  • Login
  • US Flag 
08:52PM EDT


 

Airport Tracker/Info


-or-


 

Live Flight TrackerFlight Track Log ✈ DAL107 ✈ 04-May-2012 ✈ EDDF / FRA - KJFK

Flight Track Log - Related Links

Times and Time Zones

All times are in EDT time to prevent confusion due to time zone crossing. See the DAL107 flight status page for this flight to view local times or setup timezone preferences in your user account.

Time Position Orientation Groundspeed Altitude Reporting Facility
EDT Latitude Longitude Course Direction KTS MPH feet Rate Location/Type
11:25AM 48.1920 -48.6083 257° West  Level FlightAware Approximate
11:26AM 48.1623 -48.7872 257° West  Level FlightAware Approximate
11:27AM 48.1323 -48.9659 257° West  Level FlightAware Approximate
11:30AM 47.9000 -50.4500 253° West 470 541 35,000  Level Gander Center
11:31AM 47.8667 -50.6167 255° West 470 541 35,000 300 Level Gander Center
11:32AM 47.8333 -50.8000 264° West 470 541 35,700 480 Climbing Gander Center
11:33AM 47.8167 -51.0167 255° West 470 541 36,000 120 Climbing Gander Center
11:34AM 47.7833 -51.2000 255° West 460 529 36,000  Level Gander Center
11:35AM 47.7500 -51.3833 248° West 470 541 36,000  Level Gander Center
11:36AM 47.7000 -51.5667 254° West 470 541 36,000  Level Gander Center
11:37AM 47.6667 -51.7333 257° West 470 541 36,000  Level Gander Center
11:38AM 47.6333 -51.9500 255° West 470 541 36,000  Level Gander Center
11:39AM 47.6000 -52.1333 254° West 470 541 36,000  Level Gander Center
11:40AM 47.5667 -52.3000 255° West 470 541 36,000  Level Gander Center
11:41AM 47.5333 -52.4833 255° West 470 541 36,000  Level Gander Center
11:42AM 47.5000 -52.6667 256° West 470 541 36,000  Level Gander Center
11:43AM 47.4667 -52.8667 247° West 470 541 36,000  Level Gander Center
11:44AM 47.3833 -53.1500 255° West 480 552 36,000  Level Gander Center
11:46AM 47.3333 -53.4167 248° West 480 552 36,000  Level Gander Center
11:47AM 47.2833 -53.6000 256° West 480 552 36,000  Level Gander Center
11:48AM 47.2500 -53.8000 246° West 480 552 36,000  Level Gander Center
11:49AM 47.2000 -53.9667 248° West 480 552 36,000  Level Gander Center
11:50AM 47.1500 -54.1500 255° West 470 541 36,000  Level Gander Center
11:51AM 47.1167 -54.3333 248° West 470 541 36,000  Level Gander Center
11:52AM 47.0667 -54.5167 250° West 470 541 36,000  Level Gander Center
11:53AM 47.0167 -54.7167 254° West 470 541 36,000  Level Gander Center
11:54AM 46.9833 -54.8833 248° West 470 541 36,000  Level Gander Center
11:55AM 46.9333 -55.0667 248° West 470 541 36,000  Level Gander Center
11:56AM 46.8833 -55.2500 246° West 470 541 36,000  Level Gander Center
11:57AM 46.8333 -55.4167 255° West 470 541 36,000  Level Gander Center
11:58AM 46.8000 -55.6000 246° West 480 552 36,000  Level Gander Center
11:59AM 46.7500 -55.7667 250° West 480 552 36,000  Level Gander Center
12:00PM 46.7000 -55.9667 255° West 480 552 36,000  Level Gander Center
12:01PM 46.6667 -56.1500 250° West 480 552 36,000  Level Gander Center
12:02PM 46.6167 -56.3500 246° West 470 541 36,000  Level Gander Center
12:03PM 46.5667 -56.5167 244° Southwest 480 552 36,000  Level Gander Center
12:04PM 46.5167 -56.6667 250° West 480 552 36,000  Level Gander Center
12:05PM 46.4667 -56.8667 255° West 480 552 36,000  Level Gander Center
12:06PM 46.4333 -57.0500 240° Southwest 480 552 36,000  Level Gander Center
12:07PM 46.3667 -57.2167 256° West 480 552 36,000  Level Gander Center
12:08PM 46.3333 -57.4167 247° West 480 552 36,000  Level Gander Center
12:09PM 46.2833 -57.5833 249° West 480 552 36,000  Level Gander Center
12:10PM 46.2333 -57.7667 247° West 480 552 36,000  Level Gander Center
12:11PM 46.1833 -57.9333 247° West 480 552 36,000  Level Gander Center
12:12PM 46.1333 -58.1000 250° West 480 552 36,000  Level Gander Center
12:13PM 46.0833 -58.3000 240° Southwest 480 552 36,000  Level Gander Center
12:14PM 46.0167 -58.4667 257° West 480 552 36,000  Level Gander Center
12:15PM 45.9833 -58.6667 247° West 480 552 36,000  Level Gander Center
12:16PM 45.9333 -58.8333 244° Southwest 480 552 36,000  Level Gander Center
12:17PM 45.8833 -58.9833 244° Southwest 470 541 36,000  Level Gander Center
12:18PM 45.8167 -59.1833 254° West 470 541 36,000  Level Gander Center
12:19PM 45.7833 -59.3500 247° West 470 541 36,000  Level Gander Center
12:20PM 45.7333 -59.5167 247° West 470 541 36,000  Level Gander Center
12:21PM 45.6833 -59.6833 240° Southwest 460 529 36,000  Level Gander Center
12:22PM 45.6167 -59.8500 247° West 460 529 36,000  Level Gander Center
12:23PM 45.5667 -60.0167 245° Southwest 450 518 36,000  Level Gander Center
12:24PM 45.5167 -60.1667 247° West 450 518 36,000  Level Gander Center
12:25PM 45.4667 -60.3333 247° West 440 506 36,000  Level Gander Center
12:26PM 45.4167 -60.5000 254° West 440 506 36,000  Level Gander Center
12:27PM 45.3833 -60.6667 242° Southwest 440 506 36,000  Level Gander Center
12:28PM 45.3333 -60.8000 245° Southwest 430 495 36,000  Level Gander Center
12:29PM 45.2833 -60.9500 247° West 430 495 36,000  Level Gander Center
12:30PM 45.2333 -61.1167 245° Southwest 430 495 36,000  Level Gander Center
12:31PM 45.1833 -61.2667 245° Southwest 430 495 36,000  Level Gander Center
12:32PM 45.1333 -61.4167 245° Southwest 420 483 36,000  Level Moncton Center
12:33PM 45.0833 -61.5667 245° Southwest 420 483 36,000  Level Gander Center
12:34PM 45.0333 -61.7167 247° West 420 483 36,000  Level Moncton Center
12:35PM 44.9833 -61.8833 242° Southwest 420 483 36,000  Level Moncton Center
12:36PM 44.9333 -62.0167 247° West 420 483 36,000  Level Moncton Center
12:37PM 44.8833 -62.1833 242° Southwest 410 472 36,000  Level Gander Center
12:38PM 44.8333 -62.3167 242° Southwest 410 472 36,000  Level Gander Center
12:39PM 44.7833 -62.4500 245° Southwest 410 472 36,000  Level Gander Center
12:40PM 44.7333 -62.6000 247° West 410 472 36,000  Level Gander Center
12:41PM 44.6833 -62.7667 251° West 410 472 36,000  Level Gander Center
12:42PM 44.6500 -62.9000 242° Southwest 400 460 36,000  Level Gander Center
12:43PM 44.6000 -63.0333 245° Southwest 400 460 36,000  Level Gander Center
12:44PM 44.5500 -63.1833 235° Southwest 400 460 36,000  Level Gander Center
12:45PM 44.4833 -63.3167 251° West 400 460 36,000  Level Gander Center
12:46PM 44.4500 -63.4500 242° Southwest 400 460 36,000  Level Gander Center
12:47PM 44.4000 -63.5833 247° West 400 460 36,000  Level Gander Center
12:48PM 44.3500 -63.7500 239° Southwest 400 460 36,000  Level Gander Center
12:49PM 44.3000 -63.8667 247° West 400 460 36,000  Level Gander Center
12:50PM 44.2500 -64.0333 242° Southwest 400 460 36,000  Level Gander Center
12:51PM 44.2000 -64.1667 242° Southwest 400 460 36,000  Level Gander Center
12:52PM 44.1500 -64.3000 242° Southwest 400 460 36,000  Level Gander Center
12:53PM 44.1000 -64.4333 242° Southwest 400 460 36,000  Level Gander Center
12:54PM 44.0500 -64.5667 245° Southwest 400 460 36,000  Level Gander Center
12:55PM 44.0000 -64.7167 245° Southwest 400 460 36,000  Level Moncton Center
12:56PM 43.9500 -64.8667 243° Southwest 400 460 36,000  Level Moncton Center
12:57PM 43.9000 -65.0000 243° Southwest 400 460 36,000  Level Moncton Center
12:58PM 43.8500 -65.1333 245° Southwest 400 460 36,000  Level Moncton Center
12:59PM 43.8000 -65.2833 243° Southwest 400 460 36,000  Level Moncton Center
01:00PM 43.7500 -65.4167 243° Southwest 410 472 36,000  Level Moncton Center
01:01PM 43.7000 -65.5500 243° Southwest 410 472 36,000  Level Moncton Center
01:02PM 43.6500 -65.6833 245° Southwest 410 472 36,000  Level Moncton Center
01:03PM 43.6000 -65.8333 235° Southwest 410 472 36,000  Level Moncton Center
01:04PM 43.5333 -65.9667 243° Southwest 410 472 36,000  Level Moncton Center
01:05PM 43.4833 -66.1000 243° Southwest 410 472 36,000  Level Moncton Center
01:06PM 43.4333 -66.2333 243° Southwest 410 472 36,000  Level Moncton Center
01:07PM 43.3833 -66.3667 241° Southwest 410 472 36,000  Level Moncton Center
01:08PM 43.3167 -66.5333 243° Southwest 410 472 36,000  Level Moncton Center
01:09PM 43.2667 -66.6667 236° Southwest 410 472 36,000  Level Moncton Center
01:10PM 43.2000 -66.8000 243° Southwest 410 472 36,000  Level Moncton Center
01:11PM 43.1500 -66.9333 248° West 410 472 36,000  Level Moncton Center
01:12PM 43.1000 -67.1000 249° West 410 472 36,000  Level Moncton Center
01:13PM 43.0667 -67.2167 246° West 410 472 36,000  Level Moncton Center
01:14PM 43.0167 -67.3667 255° West 410 472 36,000  Level Moncton Center
01:15PM 42.9775 -67.5608 240° Southwest 410 472 36,000  Level Boston Center
01:16PM 42.9333 -67.6667 246° West 420 483 36,000  Level Moncton Center
01:17PM 42.8833 -67.8167 251° West 420 483 36,000  Level Moncton Center
01:18PM 42.8500 -67.9500 246° West 420 483 36,000  Level Moncton Center
01:19PM 42.8000 -68.1000 243° Southwest 410 472 36,000  Level Moncton Center
01:20PM 42.7500 -68.2333 251° West 420 483 36,000  Level Moncton Center
01:21PM 42.7167 -68.3667 243° Southwest 410 472 36,000  Level Moncton Center
01:22PM 42.6667 -68.5000 248° West 410 472 36,000  Level Moncton Center
01:23PM 42.6167 -68.6667 251° West 410 472 36,000  Level Moncton Center
01:24PM 42.5833 -68.8000 236° Southwest 420 483 36,000  Level Moncton Center
01:25PM 42.5167 -68.9333 253° West 410 472 36,000  Level Moncton Center
01:26PM 42.4833 -69.0833 243° Southwest 410 472 36,000  Level Moncton Center
01:27PM 42.4333 -69.2167 254° West 410 472 36,000  Level Moncton Center
01:28PM 42.3933 -69.4094 245° Southwest 410 472 36,000  Level Boston Center
01:29PM 42.3428 -69.5550 230° Southwest 415 478 36,000  Level Boston Center
01:30PM 42.2833 -69.6500 251° West 420 483 36,000  Level Moncton Center
01:31PM 42.2500 -69.7833 239° Southwest 420 483 36,000  Level Moncton Center
01:32PM 42.1833 -69.9333 251° West 420 483 36,000  Level Moncton Center
01:33PM 42.1500 -70.0667 246° West 420 483 36,000  Level Moncton Center
01:34PM 42.1000 -70.2167 248° West 420 483 36,000  Level Moncton Center
01:35PM 42.0500 -70.3833 240° Southwest 420 483 36,000  Level Moncton Center
01:36PM 42.0000 -70.5000 239° Southwest 420 483 36,000 -540 Level Moncton Center
01:37PM 41.9333 -70.6500 236° Southwest 430 495 35,000 -780 Descending Moncton Center
01:38PM 41.8667 -70.7833 236° Southwest 430 495 34,500 -600 Descending Moncton Center
01:39PM 41.8000 -70.9167 239° Southwest 430 495 33,900 -720 Descending Moncton Center
01:40PM 41.7333 -71.0667 237° Southwest 430 495 33,100 -840 Descending Moncton Center
01:41PM 41.6561 -71.2231 235° Southwest 449 517 32,100 -780 Descending Boston Center
01:42PM 41.5844 -71.3578 236° Southwest 449 517 31,400 -660 Descending Boston Center
01:43PM 41.5169 -71.4919 234° Southwest 449 517 30,800 -1,140 Descending Boston Center
01:44PM 41.4408 -71.6317 234° Southwest 440 506 29,200 -1,980 Descending Boston Center
01:45PM 41.3708 -71.7597 234° Southwest 429 494 26,900 -2,340 Descending Boston Center
01:46PM 41.3028 -71.8847 224° Southwest 429 494 24,600 -1,500 Descending Boston Center
01:47PM 41.2386 -71.9681 220° Southwest 424 488 24,000 -1,020 Descending Boston Center
01:48PM 41.1328 -72.0847 239° Southwest 414 476 22,600 -1,800 Descending Boston Center
01:49PM 41.0789 -72.2033 250° West 388 447 20,500 -2,100 Descending Boston Center
01:50PM 41.0436 -72.3328 253° West 388 447 18,400 -2,160 Descending Boston Center
01:51PM 41.0144 -72.4594 253° West 376 433 16,200 -2,160 Descending Boston Center
01:52PM 40.9853 -72.5831 243° Southwest 371 427 14,100 -1,260 Descending Boston Center
01:55PM 40.8833 -72.8500 210° Southwest 293 337 11,900 -960 Descending New York TRACON
01:56PM 40.8167 -72.9000 225° Southwest 286 329 10,800 -1,020 Descending New York TRACON
01:57PM 40.7667 -72.9667 210° Southwest 275 316 9,900 -900 Descending New York TRACON
01:58PM 40.7000 -73.0167 258° West 279 321 9,000 -1,080 Descending New York TRACON
01:59PM 40.6833 -73.1167 255° West 252 290 7,800 -1,320 Descending New York TRACON
02:00PM 40.6667 -73.2000 255° West 249 287 6,500 -1,320 Descending New York TRACON
02:01PM 40.6500 -73.2833 225° Southwest 258 297 5,200 -1,260 Descending New York TRACON
02:02PM 40.6000 -73.3500 217° Southwest 257 296 4,000 -660 Descending New York TRACON
02:03PM 40.5500 -73.4000 258° West 225 259 4,000  Level New York TRACON
02:05PM 40.5333 -73.5000 288° West 185 213 4,000 -180 Level New York TRACON
02:06PM 40.5500 -73.5667 311° West 187 215 3,600 -660 Descending New York TRACON
02:07PM 40.5833 -73.6167 303° West 151 174 2,700 -900 Descending New York TRACON
02:08PM 40.6000 -73.6500 294° West 136 157 1,900 -780 Descending New York TRACON
02:09PM 40.6167 -73.7000 294° West 141 162 1,200 -720 Descending New York TRACON